HKTW weather

Tawi airfield
Tawi, Western Province, Kenya

Public forecast

Using degrees Celsius for public forecast. Weather courtesy of forecast.io.

METAR (pilot weather report)

Closest report is Makindu Airport, 35.8 nm (66.2 km) NE. Retrieved UTC (0 seconds ago):

TAF (pilot weather forecast)

Forecast is more than 6 hours old.

Closest forecast is Kilimanjaro International Airport, 47.0 nm (87.1 km) SSW. Retrieved 2019/03/21 12:00 UTC (12 hours ago):

TAF HTKJ 211100Z 2112/2212 09010KT 9999 FEW036 BECMG 2114/2116 SCT038 FEW040CB TEMPO 2117/2122 09020KT 5000 BLDU FEW028 BECMG 2123/2201 09010KT